Private Wetterstation Sandau
Wetterdaten: Freitag, 10.08.2012
Datum Zeit Temp. A. Feuchte A. Luftdruck Regen Wind Richtung Richtung Taupunkt Windchill
10.08.2012 00:01 14,4 C 77 % 1025,2 hPa 0,0 l/m 2,5 km/h (1 Bft) W-NW 292 10,4 C 14,4 C
10.08.2012 00:06 14,3 C 77 % 1025,2 hPa 0,0 l/m 4,3 km/h (1 Bft) N-NW 337 10,3 C 14,3 C
10.08.2012 00:11 14,3 C 77 % 1025,3 hPa 0,0 l/m 0,0 km/h (0 Bft) N-NW 337 10,3 C 14,3 C
10.08.2012 00:16 14,2 C 77 % 1025,3 hPa 0,0 l/m 2,2 km/h (1 Bft) NW 315 10,2 C 14,2 C
10.08.2012 00:21 14,1 C 77 % 1025,4 hPa 0,0 l/m 0,0 km/h (0 Bft) W-NW 292 10,1 C 14,1 C
10.08.2012 00:26 14,1 C 78 % 1025,4 hPa 0,0 l/m 1,8 km/h (1 Bft) W-NW 292 10,3 C 14,1 C
10.08.2012 00:31 13,9 C 78 % 1025,4 hPa 0,0 l/m 3,2 km/h (1 Bft) W-NW 292 10,1 C 13,9 C
10.08.2012 00:36 13,9 C 78 % 1025,4 hPa 0,0 l/m 0,0 km/h (0 Bft) W-NW 292 10,1 C 13,9 C
10.08.2012 00:41 13,8 C 78 % 1025,4 hPa 0,0 l/m 4,3 km/h (1 Bft) W-NW 292 10,0 C 13,8 C
10.08.2012 00:46 13,6 C 78 % 1025,4 hPa 0,0 l/m 0,0 km/h (0 Bft) W-NW 292 9,8 C 13,6 C
10.08.2012 00:51 13,6 C 79 % 1025,4 hPa 0,0 l/m 1,1 km/h (1 Bft) W-NW 292 10,0 C 13,6 C
10.08.2012 00:56 13,5 C 79 % 1025,4 hPa 0,0 l/m 2,9 km/h (1 Bft) W-NW 292 9,9 C 13,5 C
10.08.2012 01:01 13,4 C 80 % 1025,3 hPa 0,0 l/m 2,5 km/h (1 Bft) W-NW 292 10,0 C 13,4 C
10.08.2012 01:06 13,4 C 80 % 1025,4 hPa 0,0 l/m 2,9 km/h (1 Bft) W-NW 292 10,0 C 13,4 C
10.08.2012 01:11 13,3 C 80 % 1025,4 hPa 0,0 l/m 2,9 km/h (1 Bft) W-NW 292 9,9 C 13,3 C
10.08.2012 01:16 13,3 C 80 % 1025,3 hPa 0,0 l/m 5,4 km/h (1 Bft) NW 315 9,9 C 13,3 C
10.08.2012 01:21 13,2 C 81 % 1025,3 hPa 0,0 l/m 1,4 km/h (1 Bft) W-NW 292 10,0 C 13,2 C
10.08.2012 01:26 13,1 C 81 % 1025,4 hPa 0,0 l/m 2,5 km/h (1 Bft) W-NW 292 9,9 C 13,1 C
10.08.2012 01:31 13,1 C 81 % 1025,4 hPa 0,0 l/m 2,5 km/h (1 Bft) W-NW 292 9,9 C 13,1 C
10.08.2012 01:36 13,0 C 81 % 1025,4 hPa 0,0 l/m 1,8 km/h (1 Bft) NW 315 9,8 C 13,0 C
10.08.2012 01:41 12,9 C 81 % 1025,5 hPa 0,0 l/m 0,0 km/h (0 Bft) NW 315 9,7 C 12,9 C
10.08.2012 01:46 12,9 C 81 % 1025,4 hPa 0,0 l/m 2,5 km/h (1 Bft) NW 315 9,7 C 12,9 C
10.08.2012 01:51 12,9 C 81 % 1025,5 hPa 0,0 l/m 2,5 km/h (1 Bft) W-NW 292 9,7 C 12,9 C
10.08.2012 01:56 12,8 C 82 % 1025,5 hPa 0,0 l/m 4,7 km/h (1 Bft) NW 315 9,8 C 12,8 C
10.08.2012 02:01 12,8 C 82 % 1025,5 hPa 0,0 l/m 6,5 km/h (2 Bft) NW 315 9,8 C 12,8 C
10.08.2012 02:06 12,8 C 82 % 1025,5 hPa 0,0 l/m 4,0 km/h (1 Bft) W-NW 292 9,8 C 12,8 C
10.08.2012 02:11 12,7 C 82 % 1025,5 hPa 0,0 l/m 4,3 km/h (1 Bft) W-NW 292 9,7 C 12,7 C
10.08.2012 02:16 12,6 C 83 % 1025,5 hPa 0,0 l/m 5,8 km/h (2 Bft) NW 315 9,8 C 12,6 C
10.08.2012 02:21 12,6 C 83 % 1025,5 hPa 0,0 l/m 1,8 km/h (1 Bft) W-NW 292 9,8 C 12,6 C
10.08.2012 02:26 12,5 C 83 % 1025,5 hPa 0,0 l/m 5,8 km/h (2 Bft) NW 315 9,7 C 12,5 C
10.08.2012 02:31 12,4 C 83 % 1025,5 hPa 0,0 l/m 3,2 km/h (1 Bft) W-NW 292 9,6 C 12,4 C
10.08.2012 02:36 12,4 C 83 % 1025,4 hPa 0,0 l/m 2,5 km/h (1 Bft) NW 315 9,6 C 12,4 C
10.08.2012 02:41 12,4 C 83 % 1025,5 hPa 0,0 l/m 2,5 km/h (1 Bft) W-NW 292 9,6 C 12,4 C
10.08.2012 02:46 12,4 C 84 % 1025,5 hPa 0,0 l/m 2,5 km/h (1 Bft) W-NW 292 9,8 C 12,4 C
10.08.2012 02:51 12,3 C 84 % 1025,4 hPa 0,0 l/m 2,9 km/h (1 Bft) NW 315 9,7 C 12,3 C
10.08.2012 02:56 12,3 C 84 % 1025,3 hPa 0,0 l/m 4,0 km/h (1 Bft) W-NW 292 9,7 C 12,3 C
10.08.2012 03:01 12,3 C 84 % 1025,2 hPa 0,0 l/m 2,5 km/h (1 Bft) W-NW 292 9,7 C 12,3 C
10.08.2012 03:06 12,3 C 84 % 1025,2 hPa 0,0 l/m 5,0 km/h (1 Bft) N-NW 337 9,7 C 12,3 C
10.08.2012 03:11 12,2 C 84 % 1025,3 hPa 0,0 l/m 3,2 km/h (1 Bft) W-NW 292 9,6 C 12,2 C
10.08.2012 03:16 12,2 C 84 % 1025,2 hPa 0,0 l/m 1,8 km/h (1 Bft) W-NW 292 9,6 C 12,2 C
10.08.2012 03:21 12,1 C 84 % 1025,1 hPa 0,0 l/m 6,1 km/h (2 Bft) W-NW 292 9,5 C 12,1 C
10.08.2012 03:26 12,0 C 84 % 1025,2 hPa 0,0 l/m 5,0 km/h (1 Bft) W-NW 292 9,4 C 12,0 C
10.08.2012 03:31 11,9 C 84 % 1025,2 hPa 0,0 l/m 1,8 km/h (1 Bft) NW 315 9,3 C 11,9 C
10.08.2012 03:36 11,9 C 85 % 1025,3 hPa 0,0 l/m 0,0 km/h (0 Bft) W-NW 292 9,5 C 11,9 C
10.08.2012 03:41 11,9 C 85 % 1025,2 hPa 0,0 l/m 3,2 km/h (1 Bft) W-NW 292 9,5 C 11,9 C
10.08.2012 03:46 11,8 C 85 % 1025,3 hPa 0,0 l/m 2,2 km/h (1 Bft) W 270 9,4 C 11,8 C
10.08.2012 03:51 11,8 C 85 % 1025,3 hPa 0,0 l/m 1,8 km/h (1 Bft) W 270 9,4 C 11,8 C
10.08.2012 03:56 11,6 C 85 % 1025,3 hPa 0,0 l/m 2,2 km/h (1 Bft) W-NW 292 9,2 C 11,6 C
10.08.2012 04:01 11,6 C 85 % 1025,2 hPa 0,0 l/m 3,2 km/h (1 Bft) W-NW 292 9,2 C 11,6 C
10.08.2012 04:06 11,6 C 86 % 1025,2 hPa 0,0 l/m 2,2 km/h (1 Bft) W-NW 292 9,3 C 11,6 C
10.08.2012 04:11 11,5 C 86 % 1025,2 hPa 0,0 l/m 0,0 km/h (0 Bft) W-NW 292 9,2 C 11,5 C
10.08.2012 04:16 11,4 C 86 % 1025,3 hPa 0,0 l/m 0,0 km/h (0 Bft) W-NW 292 9,1 C 11,4 C
10.08.2012 04:21 11,4 C 86 % 1025,3 hPa 0,0 l/m 2,5 km/h (1 Bft) NW 315 9,1 C 11,4 C
10.08.2012 04:26 11,3 C 86 % 1025,3 hPa 0,0 l/m 0,0 km/h (0 Bft) W 270 9,0 C 11,3 C
10.08.2012 04:31 11,3 C 86 % 1025,4 hPa 0,0 l/m 2,5 km/h (1 Bft) W-NW 292 9,0 C 11,3 C
10.08.2012 04:36 11,3 C 86 % 1025,4 hPa 0,0 l/m 0,0 km/h (0 Bft) W-NW 292 9,0 C 11,3 C
10.08.2012 04:41 11,2 C 86 % 1025,4 hPa 0,0 l/m 2,5 km/h (1 Bft) W-NW 292 8,9 C 11,2 C
10.08.2012 04:46 11,2 C 86 % 1025,4 hPa 0,0 l/m 5,0 km/h (1 Bft) W-NW 292 8,9 C 11,2 C
10.08.2012 04:51 11,1 C 86 % 1025,3 hPa 0,0 l/m 2,5 km/h (1 Bft) W 270 8,8 C 11,1 C
10.08.2012 04:56 11,1 C 87 % 1025,3 hPa 0,0 l/m 2,5 km/h (1 Bft) W-NW 292 9,0 C 11,1 C
10.08.2012 05:01 11,1 C 87 % 1025,3 hPa 0,0 l/m 0,0 km/h (0 Bft) NW 315 9,0 C 11,1 C
10.08.2012 05:06 11,1 C 87 % 1025,4 hPa 0,0 l/m 2,5 km/h (1 Bft) NW 315 9,0 C 11,1 C
10.08.2012 05:11 11,0 C 87 % 1025,4 hPa 0,0 l/m 4,7 km/h (1 Bft) W-NW 292 8,9 C 11,0 C
10.08.2012 05:16 11,0 C 87 % 1025,3 hPa 0,0 l/m 3,2 km/h (1 Bft) W-NW 292 8,9 C 11,0 C
10.08.2012 05:21 10,9 C 87 % 1025,4 hPa 0,0 l/m 5,0 km/h (1 Bft) W-NW 292 8,8 C 10,9 C
10.08.2012 05:26 10,9 C 87 % 1025,4 hPa 0,0 l/m 2,2 km/h (1 Bft) NW 315 8,8 C 10,9 C
10.08.2012 05:31 10,9 C 87 % 1025,5 hPa 0,0 l/m 3,2 km/h (1 Bft) NW 315 8,8 C 10,9 C
10.08.2012 05:36 10,9 C 88 % 1025,4 hPa 0,0 l/m 4,3 km/h (1 Bft) NW 315 9,0 C 10,9 C
10.08.2012 05:41 10,9 C 88 % 1025,4 hPa 0,0 l/m 4,7 km/h (1 Bft) NW 315 9,0 C 10,9 C
10.08.2012 05:46 10,9 C 88 % 1025,5 hPa 0,0 l/m 5,0 km/h (1 Bft) NW 315 9,0 C 10,9 C
10.08.2012 05:51 10,9 C 88 % 1025,5 hPa 0,0 l/m 2,2 km/h (1 Bft) NW 315 9,0 C 10,9 C
10.08.2012 05:56 10,9 C 88 % 1025,5 hPa 0,0 l/m 4,7 km/h (1 Bft) NW 315 9,0 C 10,9 C
10.08.2012 06:01 10,9 C 88 % 1025,5 hPa 0,0 l/m 5,0 km/h (1 Bft) W-NW 292 9,0 C 10,9 C
10.08.2012 06:06 10,9 C 88 % 1025,6 hPa 0,0 l/m 3,6 km/h (1 Bft) W-NW 292 9,0 C 10,9 C
10.08.2012 06:11 10,9 C 88 % 1025,7 hPa 0,0 l/m 7,9 km/h (2 Bft) W-NW 292 9,0 C 10,9 C
10.08.2012 06:16 10,9 C 89 % 1025,5 hPa 0,0 l/m 4,3 km/h (1 Bft) W-NW 292 9,2 C 10,9 C
10.08.2012 06:21 11,0 C 89 % 1025,5 hPa 0,0 l/m 4,0 km/h (1 Bft) W-NW 292 9,3 C 11,0 C
10.08.2012 06:26 11,2 C 89 % 1025,5 hPa 0,0 l/m 7,6 km/h (2 Bft) W-NW 292 9,5 C 11,2 C
10.08.2012 06:31 11,3 C 89 % 1025,4 hPa 0,0 l/m 3,2 km/h (1 Bft) W-NW 292 9,6 C 11,3 C
10.08.2012 06:36 11,3 C 89 % 1025,5 hPa 0,0 l/m 3,2 km/h (1 Bft) NW 315 9,6 C 11,3 C
10.08.2012 06:41 11,4 C 88 % 1025,6 hPa 0,0 l/m 1,4 km/h (1 Bft) W-NW 292 9,5 C 11,4 C
10.08.2012 06:46 11,5 C 88 % 1025,7 hPa 0,0 l/m 3,6 km/h (1 Bft) W-NW 292 9,6 C 11,5 C
10.08.2012 06:51 11,6 C 88 % 1025,7 hPa 0,0 l/m 2,9 km/h (1 Bft) W-NW 292 9,7 C 11,6 C
10.08.2012 06:56 11,8 C 88 % 1025,7 hPa 0,0 l/m 3,6 km/h (1 Bft) NW 315 9,9 C 11,8 C
10.08.2012 07:01 11,8 C 88 % 1025,8 hPa 0,0 l/m 0,0 km/h (0 Bft) W-NW 292 9,9 C 11,8 C
10.08.2012 07:06 11,8 C 88 % 1025,8 hPa 0,0 l/m 0,0 km/h (0 Bft) W-NW 292 9,9 C 11,8 C
10.08.2012 07:11 11,8 C 88 % 1025,8 hPa 0,0 l/m 2,5 km/h (1 Bft) N-NW 337 9,9 C 11,8 C
10.08.2012 07:16 11,8 C 88 % 1025,9 hPa 0,0 l/m 7,2 km/h (2 Bft) W-NW 292 9,9 C 11,8 C
10.08.2012 07:21 11,8 C 88 % 1026,0 hPa 0,0 l/m 4,0 km/h (1 Bft) W-NW 292 9,9 C 11,8 C
10.08.2012 07:26 11,9 C 88 % 1026,0 hPa 0,0 l/m 5,8 km/h (2 Bft) NW 315 10,0 C 11,9 C
10.08.2012 07:31 11,9 C 88 % 1025,9 hPa 0,0 l/m 5,8 km/h (2 Bft) NW 315 10,0 C 11,9 C
10.08.2012 07:36 11,9 C 88 % 1025,9 hPa 0,0 l/m 5,8 km/h (2 Bft) W-NW 292 10,0 C 11,9 C
10.08.2012 07:41 12,1 C 88 % 1026,0 hPa 0,0 l/m 3,6 km/h (1 Bft) W-NW 292 10,2 C 12,1 C
10.08.2012 07:46 12,2 C 88 % 1025,9 hPa 0,0 l/m 0,0 km/h (0 Bft) W-NW 292 10,3 C 12,2 C
10.08.2012 07:51 12,3 C 88 % 1026,0 hPa 0,0 l/m 1,1 km/h (1 Bft) W-NW 292 10,4 C 12,3 C
10.08.2012 07:56 12,4 C 88 % 1025,9 hPa 0,0 l/m 0,0 km/h (0 Bft) NW 315 10,5 C 12,4 C
10.08.2012 08:01 12,6 C 88 % 1026,0 hPa 0,0 l/m 3,2 km/h (1 Bft) NW 315 10,7 C 12,6 C
10.08.2012 08:06 12,8 C 88 % 1026,0 hPa 0,0 l/m 7,2 km/h (2 Bft) NW 315 10,9 C 12,8 C
10.08.2012 08:11 13,0 C 88 % 1026,1 hPa 0,0 l/m 2,2 km/h (1 Bft) W 270 11,1 C 13,0 C
10.08.2012 08:16 13,4 C 88 % 1026,1 hPa 0,0 l/m 3,2 km/h (1 Bft) W-NW 292 11,5 C 13,4 C
10.08.2012 08:21 13,6 C 87 % 1026,2 hPa 0,0 l/m 2,5 km/h (1 Bft) W-NW 292 11,5 C 13,6 C
10.08.2012 08:26 14,1 C 87 % 1026,2 hPa 0,0 l/m 5,0 km/h (1 Bft) W-NW 292 12,0 C 14,1 C
10.08.2012 08:31 14,4 C 85 % 1026,2 hPa 0,0 l/m 4,7 km/h (1 Bft) NW 315 11,9 C 14,4 C
10.08.2012 08:36 14,9 C 84 % 1026,1 hPa 0,0 l/m 3,2 km/h (1 Bft) NW 315 12,2 C 14,9 C
10.08.2012 08:41 15,0 C 83 % 1026,0 hPa 0,0 l/m 11,9 km/h (2 Bft) N-NW 337 12,1 C 15,0 C
10.08.2012 08:46 15,3 C 82 % 1025,9 hPa 0,0 l/m 6,1 km/h (2 Bft) NW 315 12,2 C 15,3 C
10.08.2012 08:51 15,7 C 80 % 1025,8 hPa 0,0 l/m 6,1 km/h (2 Bft) NW 315 12,3 C 15,7 C
10.08.2012 08:56 16,2 C 79 % 1025,9 hPa 0,0 l/m 5,0 km/h (1 Bft) N 360 12,6 C 16,2 C
10.08.2012 09:01 16,4 C 75 % 1026,0 hPa 0,0 l/m 5,8 km/h (2 Bft) NW 315 12,0 C 16,4 C
10.08.2012 09:06 16,6 C 74 % 1026,1 hPa 0,0 l/m 7,2 km/h (2 Bft) NW 315 11,9 C 16,6 C
10.08.2012 09:11 16,8 C 72 % 1026,1 hPa 0,0 l/m 3,6 km/h (1 Bft) W 270 11,7 C 16,8 C
10.08.2012 09:16 16,9 C 72 % 1026,0 hPa 0,0 l/m 6,1 km/h (2 Bft) N-NW 337 11,8 C 16,9 C
10.08.2012 09:21 17,1 C 72 % 1026,3 hPa 0,0 l/m 9,4 km/h (2 Bft) NW 315 12,0 C 17,1 C
10.08.2012 09:26 17,3 C 72 % 1026,2 hPa 0,0 l/m 7,9 km/h (2 Bft) W-NW 292 12,2 C 17,3 C
10.08.2012 09:31 17,3 C 69 % 1026,3 hPa 0,0 l/m 10,4 km/h (2 Bft) W-NW 292 11,6 C 17,3 C
10.08.2012 09:36 17,3 C 69 % 1026,1 hPa 0,0 l/m 3,2 km/h (1 Bft) W-NW 292 11,6 C 17,3 C
10.08.2012 09:41 17,0 C 68 % 1026,2 hPa 0,0 l/m 5,8 km/h (2 Bft) W-NW 292 11,0 C 17,0 C
10.08.2012 09:46 16,9 C 69 % 1026,1 hPa 0,0 l/m 11,9 km/h (2 Bft) NW 315 11,2 C 16,9 C
10.08.2012 09:51 17,1 C 69 % 1026,2 hPa 0,0 l/m 5,4 km/h (1 Bft) W 270 11,4 C 17,1 C
10.08.2012 09:56 17,3 C 69 % 1026,0 hPa 0,0 l/m 3,6 km/h (1 Bft) W 270 11,6 C 17,3 C
10.08.2012 10:01 17,6 C 68 % 1026,1 hPa 0,0 l/m 3,6 km/h (1 Bft) W-NW 292 11,6 C 17,6 C
10.08.2012 10:06 17,9 C 67 % 1026,0 hPa 0,0 l/m 8,6 km/h (2 Bft) W-SW 247 11,7 C 17,9 C
10.08.2012 10:11 18,0 C 66 % 1026,1 hPa 0,0 l/m 9,4 km/h (2 Bft) NW 315 11,6 C 18,0 C
10.08.2012 10:16 18,2 C 65 % 1025,9 hPa 0,0 l/m 6,5 km/h (2 Bft) W 270 11,5 C 18,2 C
10.08.2012 10:21 18,3 C 64 % 1025,9 hPa 0,0 l/m 2,5 km/h (1 Bft) N 360 11,4 C 18,3 C
10.08.2012 10:26 18,3 C 63 % 1026,1 hPa 0,0 l/m 13,3 km/h (3 Bft) W-NW 292 11,1 C 18,3 C
10.08.2012 10:31 18,4 C 61 % 1026,1 hPa 0,0 l/m 3,2 km/h (1 Bft) W-NW 292 10,7 C 18,4 C
10.08.2012 10:36 18,4 C 61 % 1026,0 hPa 0,0 l/m 8,6 km/h (2 Bft) W-NW 292 10,7 C 18,4 C
10.08.2012 10:41 18,6 C 61 % 1026,0 hPa 0,0 l/m 3,6 km/h (1 Bft) W 270 10,9 C 18,6 C
10.08.2012 10:46 18,8 C 60 % 1026,0 hPa 0,0 l/m 8,6 km/h (2 Bft) NW 315 10,9 C 18,8 C
10.08.2012 10:51 18,6 C 59 % 1025,9 hPa 0,0 l/m 6,8 km/h (2 Bft) NW 315 10,4 C 18,6 C
10.08.2012 10:56 18,4 C 59 % 1026,0 hPa 0,0 l/m 9,7 km/h (2 Bft) N-NW 337 10,2 C 18,4 C
10.08.2012 11:01 18,4 C 59 % 1026,0 hPa 0,0 l/m 6,8 km/h (2 Bft) W-NW 292 10,2 C 18,4 C
10.08.2012 11:06 18,3 C 57 % 1026,0 hPa 0,0 l/m 4,0 km/h (1 Bft) N-NO 22 9,6 C 18,3 C
10.08.2012 11:11 18,3 C 59 % 1025,9 hPa 0,0 l/m 9,7 km/h (2 Bft) NW 315 10,1 C 18,3 C
10.08.2012 11:16 18,3 C 58 % 1025,9 hPa 0,0 l/m 8,6 km/h (2 Bft) W 270 9,9 C 18,3 C
10.08.2012 11:21 18,3 C 59 % 1025,9 hPa 0,0 l/m 5,8 km/h (2 Bft) W 270 10,1 C 18,3 C
10.08.2012 11:26 18,3 C 57 % 1025,8 hPa 0,0 l/m 17,3 km/h (3 Bft) N-NO 22 9,6 C 18,3 C
10.08.2012 11:31 18,0 C 58 % 1025,8 hPa 0,0 l/m 9,0 km/h (2 Bft) N-NW 337 9,6 C 18,0 C
10.08.2012 11:36 17,9 C 59 % 1025,8 hPa 0,0 l/m 7,6 km/h (2 Bft) N-NO 22 9,8 C 17,9 C
10.08.2012 11:41 17,6 C 58 % 1025,8 hPa 0,0 l/m 6,1 km/h (2 Bft) N-NW 337 9,2 C 17,6 C
10.08.2012 11:46 17,6 C 59 % 1025,9 hPa 0,0 l/m 4,0 km/h (1 Bft) N-NW 337 9,5 C 17,6 C
10.08.2012 11:51 17,7 C 59 % 1025,8 hPa 0,0 l/m 5,0 km/h (1 Bft) N-NO 22 9,6 C 17,7 C
10.08.2012 11:56 17,8 C 59 % 1025,8 hPa 0,0 l/m 2,5 km/h (1 Bft) NO 45 9,7 C 17,8 C
10.08.2012 12:01 17,9 C 57 % 1025,8 hPa 0,0 l/m 10,8 km/h (2 Bft) N 360 9,3 C 17,9 C
10.08.2012 12:06 17,9 C 57 % 1025,8 hPa 0,0 l/m 7,6 km/h (2 Bft) N 360 9,3 C 17,9 C
10.08.2012 12:11 17,8 C 57 % 1025,8 hPa 0,0 l/m 6,5 km/h (2 Bft) N-NO 22 9,2 C 17,8 C
10.08.2012 12:16 17,8 C 58 % 1025,8 hPa 0,0 l/m 3,6 km/h (1 Bft) NW 315 9,4 C 17,8 C
10.08.2012 12:21 18,1 C 59 % 1025,9 hPa 0,0 l/m 9,0 km/h (2 Bft) NW 315 10,0 C 18,1 C
10.08.2012 12:26 18,3 C 58 % 1025,9 hPa 0,0 l/m 13,3 km/h (3 Bft) W 270 9,9 C 18,3 C
10.08.2012 12:31 18,9 C 57 % 1025,7 hPa 0,0 l/m 10,4 km/h (2 Bft) W 270 10,2 C 18,9 C
10.08.2012 12:36 19,6 C 55 % 1025,6 hPa 0,0 l/m 0,0 km/h (0 Bft) NO 45 10,3 C 19,6 C
10.08.2012 12:41 19,6 C 54 % 1025,4 hPa 0,0 l/m 0,0 km/h (0 Bft) W-NW 292 10,0 C 19,6 C
10.08.2012 12:46 19,3 C 52 % 1025,5 hPa 0,0 l/m 5,4 km/h (1 Bft) N-NO 22 9,2 C 19,3 C
10.08.2012 12:51 18,9 C 53 % 1025,5 hPa 0,0 l/m 15,1 km/h (3 Bft) W-NW 292 9,1 C 18,9 C
10.08.2012 12:56 18,9 C 53 % 1025,5 hPa 0,0 l/m 4,0 km/h (1 Bft) N-NO 22 9,1 C 18,9 C
10.08.2012 13:01 18,9 C 53 % 1025,4 hPa 0,0 l/m 6,8 km/h (2 Bft) NW 315 9,1 C 18,9 C
10.08.2012 13:06 19,0 C 52 % 1025,5 hPa 0,0 l/m 6,1 km/h (2 Bft) NW 315 8,9 C 19,0 C
10.08.2012 13:11 19,2 C 52 % 1025,5 hPa 0,0 l/m 4,3 km/h (1 Bft) W-NW 292 9,1 C 19,2 C
10.08.2012 13:16 19,6 C 51 % 1025,6 hPa 0,0 l/m 7,6 km/h (2 Bft) W-NW 292 9,2 C 19,6 C
10.08.2012 13:21 19,8 C 50 % 1025,5 hPa 0,0 l/m 8,3 km/h (2 Bft) N-NO 22 9,1 C 19,8 C
10.08.2012 13:26 19,6 C 50 % 1025,5 hPa 0,0 l/m 4,3 km/h (1 Bft) N 360 8,9 C 19,6 C
10.08.2012 13:31 19,8 C 50 % 1025,5 hPa 0,0 l/m 5,0 km/h (1 Bft) N-NO 22 9,1 C 19,8 C
10.08.2012 13:36 19,9 C 50 % 1025,4 hPa 0,0 l/m 6,1 km/h (2 Bft) NW 315 9,2 C 19,9 C
10.08.2012 13:41 20,4 C 50 % 1025,4 hPa 0,0 l/m 4,7 km/h (1 Bft) N 360 9,6 C 20,4 C
10.08.2012 13:46 20,3 C 49 % 1025,4 hPa 0,0 l/m 10,1 km/h (2 Bft) NW 315 9,2 C 20,3 C
10.08.2012 13:51 20,0 C 49 % 1025,3 hPa 0,0 l/m 13,7 km/h (3 Bft) N 360 9,0 C 20,0 C
10.08.2012 13:56 19,5 C 51 % 1025,2 hPa 0,0 l/m 4,0 km/h (1 Bft) N 360 9,1 C 19,5 C
10.08.2012 14:01 19,5 C 52 % 1025,3 hPa 0,0 l/m 7,2 km/h (2 Bft) N-NO 22 9,4 C 19,5 C
10.08.2012 14:06 19,4 C 52 % 1025,3 hPa 0,0 l/m 4,0 km/h (1 Bft) N-NO 22 9,3 C 19,4 C
10.08.2012 14:11 19,4 C 52 % 1025,2 hPa 0,0 l/m 3,2 km/h (1 Bft) N-NO 22 9,3 C 19,4 C
10.08.2012 14:16 19,3 C 53 % 1025,2 hPa 0,0 l/m 5,0 km/h (1 Bft) N 360 9,5 C 19,3 C
10.08.2012 14:21 19,1 C 54 % 1025,3 hPa 0,0 l/m 7,6 km/h (2 Bft) N 360 9,6 C 19,1 C
10.08.2012 14:26 18,9 C 54 % 1025,3 hPa 0,0 l/m 4,0 km/h (1 Bft) NO 45 9,4 C 18,9 C
10.08.2012 14:31 18,7 C 55 % 1025,2 hPa 0,0 l/m 10,4 km/h (2 Bft) N-NW 337 9,5 C 18,7 C
10.08.2012 14:36 18,9 C 56 % 1025,2 hPa 0,0 l/m 14,8 km/h (3 Bft) NO 45 9,9 C 18,9 C
10.08.2012 14:41 18,9 C 55 % 1025,3 hPa 0,0 l/m 6,8 km/h (2 Bft) W 270 9,7 C 18,9 C
10.08.2012 14:46 19,2 C 55 % 1025,2 hPa 0,0 l/m 5,8 km/h (2 Bft) N-NW 337 9,9 C 19,2 C
10.08.2012 14:51 19,3 C 54 % 1025,2 hPa 0,0 l/m 7,6 km/h (2 Bft) N-NW 337 9,8 C 19,3 C
10.08.2012 14:56 19,3 C 54 % 1025,1 hPa 0,0 l/m 11,5 km/h (2 Bft) NW 315 9,8 C 19,3 C
10.08.2012 15:01 19,5 C 54 % 1025,1 hPa 0,0 l/m 10,1 km/h (2 Bft) W-NW 292 9,9 C 19,5 C
10.08.2012 15:06 19,6 C 54 % 1025,1 hPa 0,0 l/m 7,9 km/h (2 Bft) W-NW 292 10,0 C 19,6 C
10.08.2012 15:11 19,7 C 53 % 1025,1 hPa 0,0 l/m 8,6 km/h (2 Bft) NW 315 9,8 C 19,7 C
10.08.2012 15:16 19,8 C 53 % 1025,1 hPa 0,0 l/m 7,2 km/h (2 Bft) NW 315 9,9 C 19,8 C
10.08.2012 15:21 19,8 C 54 % 1025,0 hPa 0,0 l/m 4,7 km/h (1 Bft) N 360 10,2 C 19,8 C
10.08.2012 15:26 19,9 C 53 % 1025,0 hPa 0,0 l/m 20,9 km/h (4 Bft) W-NW 292 10,0 C 19,9 C
10.08.2012 15:31 19,9 C 54 % 1025,0 hPa 0,0 l/m 13,3 km/h (3 Bft) W-NW 292 10,3 C 19,9 C
10.08.2012 15:36 19,9 C 54 % 1025,0 hPa 0,0 l/m 8,3 km/h (2 Bft) W-NW 292 10,3 C 19,9 C
10.08.2012 15:41 20,1 C 54 % 1025,0 hPa 0,0 l/m 14,4 km/h (3 Bft) W-NW 292 10,5 C 20,1 C
10.08.2012 15:46 19,9 C 54 % 1025,0 hPa 0,0 l/m 4,0 km/h (1 Bft) W 270 10,3 C 19,9 C
10.08.2012 15:51 20,0 C 55 % 1025,0 hPa 0,0 l/m 16,9 km/h (3 Bft) W-NW 292 10,7 C 20,0 C
10.08.2012 15:56 20,3 C 55 % 1024,9 hPa 0,0 l/m 6,1 km/h (2 Bft) NW 315 11,0 C 20,3 C
10.08.2012 16:01 20,4 C 55 % 1024,8 hPa 0,0 l/m 7,2 km/h (2 Bft) W 270 11,1 C 20,4 C
10.08.2012 16:06 20,4 C 55 % 1024,7 hPa 0,0 l/m 9,4 km/h (2 Bft) NW 315 11,1 C 20,4 C
10.08.2012 16:11 20,4 C 54 % 1024,6 hPa 0,0 l/m 5,8 km/h (2 Bft) W-NW 292 10,8 C 20,4 C
10.08.2012 16:16 20,3 C 54 % 1024,6 hPa 0,0 l/m 5,8 km/h (2 Bft) W-NW 292 10,7 C 20,3 C
10.08.2012 16:21 20,2 C 55 % 1024,5 hPa 0,0 l/m 4,7 km/h (1 Bft) W-NW 292 10,9 C 20,2 C
10.08.2012 16:26 20,6 C 55 % 1024,5 hPa 0,0 l/m 6,5 km/h (2 Bft) W-NW 292 11,2 C 20,6 C
10.08.2012 16:31 20,9 C 54 % 1024,5 hPa 0,0 l/m 13,3 km/h (3 Bft) N-NW 337 11,2 C 20,9 C
10.08.2012 16:36 21,1 C 53 % 1024,4 hPa 0,0 l/m 4,0 km/h (1 Bft) N 360 11,1 C 21,1 C
10.08.2012 16:41 20,8 C 53 % 1024,4 hPa 0,0 l/m 6,1 km/h (2 Bft) NW 315 10,9 C 20,8 C
10.08.2012 16:46 20,5 C 54 % 1024,5 hPa 0,0 l/m 9,4 km/h (2 Bft) W 270 10,9 C 20,5 C
10.08.2012 16:51 20,3 C 54 % 1024,4 hPa 0,0 l/m 7,6 km/h (2 Bft) N-NO 22 10,7 C 20,3 C
10.08.2012 16:56 20,1 C 54 % 1024,4 hPa 0,0 l/m 6,8 km/h (2 Bft) NW 315 10,5 C 20,1 C
10.08.2012 17:01 19,9 C 55 % 1024,3 hPa 0,0 l/m 7,6 km/h (2 Bft) W-NW 292 10,6 C 19,9 C
10.08.2012 17:06 19,6 C 56 % 1024,4 hPa 0,0 l/m 5,0 km/h (1 Bft) N 360 10,6 C 19,6 C
10.08.2012 17:11 19,3 C 56 % 1024,4 hPa 0,0 l/m 5,4 km/h (1 Bft) NW 315 10,3 C 19,3 C
10.08.2012 17:16 19,3 C 57 % 1024,5 hPa 0,0 l/m 6,1 km/h (2 Bft) N-NO 22 10,6 C 19,3 C
10.08.2012 17:21 19,0 C 57 % 1024,4 hPa 0,0 l/m 11,9 km/h (2 Bft) NW 315 10,3 C 19,0 C
10.08.2012 17:26 18,8 C 58 % 1024,4 hPa 0,0 l/m 8,6 km/h (2 Bft) N-NW 337 10,4 C 18,8 C
10.08.2012 17:31 18,5 C 59 % 1024,5 hPa 0,0 l/m 5,0 km/h (1 Bft) N 360 10,3 C 18,5 C
10.08.2012 17:36 18,3 C 60 % 1024,4 hPa 0,0 l/m 9,0 km/h (2 Bft) N 360 10,4 C 18,3 C
10.08.2012 17:41 17,9 C 61 % 1024,4 hPa 0,0 l/m 4,0 km/h (1 Bft) N 360 10,3 C 17,9 C
10.08.2012 17:46 17,8 C 62 % 1024,5 hPa 0,0 l/m 6,1 km/h (2 Bft) N-NO 22 10,4 C 17,8 C
10.08.2012 17:51 17,8 C 63 % 1024,5 hPa 0,0 l/m 5,4 km/h (1 Bft) N 360 10,7 C 17,8 C
10.08.2012 17:56 17,6 C 64 % 1024,4 hPa 0,0 l/m 1,8 km/h (1 Bft) N-NO 22 10,7 C 17,6 C
10.08.2012 18:01 17,6 C 64 % 1024,5 hPa 0,0 l/m 7,2 km/h (2 Bft) N-NO 22 10,7 C 17,6 C
10.08.2012 18:06 17,5 C 65 % 1024,5 hPa 0,0 l/m 7,9 km/h (2 Bft) N 360 10,8 C 17,5 C
10.08.2012 18:11 17,5 C 65 % 1024,4 hPa 0,0 l/m 2,9 km/h (1 Bft) N-NW 337 10,8 C 17,5 C
10.08.2012 18:16 17,5 C 65 % 1024,5 hPa 0,0 l/m 3,2 km/h (1 Bft) W-NW 292 10,8 C 17,5 C
10.08.2012 18:21 17,5 C 66 % 1024,6 hPa 0,0 l/m 10,4 km/h (2 Bft) N-NW 337 11,1 C 17,5 C
10.08.2012 18:26 17,4 C 66 % 1024,7 hPa 0,0 l/m 13,3 km/h (3 Bft) W-NW 292 11,0 C 17,4 C
10.08.2012 18:31 16,9 C 71 % 1024,7 hPa 0,0 l/m 14,0 km/h (3 Bft) N 360 11,6 C 16,9 C
10.08.2012 18:36 16,4 C 74 % 1024,5 hPa 0,0 l/m 9,7 km/h (2 Bft) NO 45 11,8 C 16,4 C
10.08.2012 18:41 16,1 C 76 % 1024,6 hPa 0,0 l/m 3,2 km/h (1 Bft) W-NW 292 11,9 C 16,1 C
10.08.2012 18:46 15,9 C 77 % 1024,5 hPa 0,0 l/m 0,0 km/h (0 Bft) N-NW 337 11,9 C 15,9 C
10.08.2012 18:51 15,8 C 78 % 1024,3 hPa 0,0 l/m 3,6 km/h (1 Bft) W-NW 292 12,0 C 15,8 C
10.08.2012 18:56 15,8 C 78 % 1024,3 hPa 0,0 l/m 6,8 km/h (2 Bft) NW 315 12,0 C 15,8 C
10.08.2012 19:01 15,7 C 79 % 1024,3 hPa 0,0 l/m 2,9 km/h (1 Bft) W-NW 292 12,1 C 15,7 C
10.08.2012 19:06 15,7 C 79 % 1024,3 hPa 0,0 l/m 1,4 km/h (1 Bft) W-NW 292 12,1 C 15,7 C
10.08.2012 19:11 15,6 C 79 % 1024,2 hPa 0,0 l/m 2,2 km/h (1 Bft) W-NW 292 12,0 C 15,6 C
10.08.2012 19:16 15,6 C 79 % 1024,2 hPa 0,0 l/m 0,0 km/h (0 Bft) W-NW 292 12,0 C 15,6 C
10.08.2012 19:21 15,6 C 79 % 1024,1 hPa 0,0 l/m 0,0 km/h (0 Bft) W-NW 292 12,0 C 15,6 C
10.08.2012 19:26 15,7 C 79 % 1024,1 hPa 0,0 l/m 0,0 km/h (0 Bft) W-NW 292 12,1 C 15,7 C
10.08.2012 19:31 15,8 C 80 % 1024,0 hPa 0,0 l/m 0,0 km/h (0 Bft) W-NW 292 12,4 C 15,8 C
10.08.2012 19:36 15,8 C 80 % 1024,0 hPa 0,0 l/m 0,0 km/h (0 Bft) W-NW 292 12,4 C 15,8 C
10.08.2012 19:41 15,8 C 80 % 1024,0 hPa 0,0 l/m 0,0 km/h (0 Bft) W-NW 292 12,4 C 15,8 C
10.08.2012 19:46 15,9 C 80 % 1024,0 hPa 0,0 l/m 2,5 km/h (1 Bft) W 270 12,5 C 15,9 C
10.08.2012 19:51 15,9 C 80 % 1023,9 hPa 0,0 l/m 2,5 km/h (1 Bft) SW 225 12,5 C 15,9 C
10.08.2012 19:56 15,9 C 80 % 1023,9 hPa 0,0 l/m 3,2 km/h (1 Bft) W-SW 247 12,5 C 15,9 C
10.08.2012 20:01 15,9 C 80 % 1023,9 hPa 0,0 l/m 2,9 km/h (1 Bft) W-SW 247 12,5 C 15,9 C
10.08.2012 20:06 15,9 C 80 % 1023,9 hPa 0,0 l/m 4,0 km/h (1 Bft) W-SW 247 12,5 C 15,9 C
10.08.2012 20:11 15,8 C 80 % 1023,9 hPa 0,0 l/m 2,2 km/h (1 Bft) W 270 12,4 C 15,8 C
10.08.2012 20:16 15,8 C 80 % 1023,9 hPa 0,0 l/m 2,5 km/h (1 Bft) W 270 12,4 C 15,8 C
10.08.2012 20:21 15,8 C 80 % 1023,9 hPa 0,0 l/m 8,6 km/h (2 Bft) W-SW 247 12,4 C 15,8 C
10.08.2012 20:26 15,6 C 80 % 1024,0 hPa 0,0 l/m 5,4 km/h (1 Bft) W-SW 247 12,2 C 15,6 C
10.08.2012 20:31 15,6 C 80 % 1023,7 hPa 0,0 l/m 5,8 km/h (2 Bft) W-NW 292 12,2 C 15,6 C
10.08.2012 20:36 15,6 C 80 % 1023,9 hPa 0,0 l/m 9,7 km/h (2 Bft) NW 315 12,2 C 15,6 C
10.08.2012 20:41 15,6 C 80 % 1023,9 hPa 0,0 l/m 5,0 km/h (1 Bft) W-SW 247 12,2 C 15,6 C
10.08.2012 20:46 15,6 C 80 % 1023,9 hPa 0,0 l/m 4,3 km/h (1 Bft) W 270 12,2 C 15,6 C
10.08.2012 20:51 15,6 C 80 % 1023,9 hPa 0,0 l/m 4,0 km/h (1 Bft) W 270 12,2 C 15,6 C
10.08.2012 20:56 15,5 C 80 % 1023,9 hPa 0,0 l/m 2,9 km/h (1 Bft) W-NW 292 12,1 C 15,5 C
10.08.2012 21:01 15,5 C 80 % 1023,9 hPa 0,0 l/m 2,2 km/h (1 Bft) W 270 12,1 C 15,5 C
10.08.2012 21:06 15,5 C 80 % 1023,7 hPa 0,0 l/m 4,7 km/h (1 Bft) W 270 12,1 C 15,5 C
10.08.2012 21:11 15,4 C 80 % 1023,8 hPa 0,0 l/m 4,0 km/h (1 Bft) W 270 12,0 C 15,4 C
10.08.2012 21:16 15,4 C 80 % 1023,9 hPa 0,0 l/m 2,5 km/h (1 Bft) W 270 12,0 C 15,4 C
10.08.2012 21:21 15,4 C 80 % 1023,8 hPa 0,0 l/m 2,5 km/h (1 Bft) W 270 12,0 C 15,4 C
10.08.2012 21:26 15,5 C 80 % 1023,9 hPa 0,0 l/m 2,2 km/h (1 Bft) W-NW 292 12,1 C 15,5 C
10.08.2012 21:31 15,4 C 81 % 1023,9 hPa 0,0 l/m 1,4 km/h (1 Bft) W 270 12,2 C 15,4 C
10.08.2012 21:36 15,4 C 81 % 1023,8 hPa 0,0 l/m 2,9 km/h (1 Bft) W 270 12,2 C 15,4 C
10.08.2012 21:41 15,4 C 81 % 1023,9 hPa 0,0 l/m 7,6 km/h (2 Bft) W-SW 247 12,2 C 15,4 C
10.08.2012 21:46 15,4 C 82 % 1023,8 hPa 0,0 l/m 9,7 km/h (2 Bft) W 270 12,3 C 15,4 C
10.08.2012 21:51 15,4 C 82 % 1023,9 hPa 0,0 l/m 1,8 km/h (1 Bft) W 270 12,3 C 15,4 C
10.08.2012 21:56 15,4 C 82 % 1023,9 hPa 0,0 l/m 4,7 km/h (1 Bft) W-SW 247 12,3 C 15,4 C
10.08.2012 22:01 15,4 C 82 % 1023,9 hPa 0,0 l/m 4,0 km/h (1 Bft) W-SW 247 12,3 C 15,4 C
10.08.2012 22:06 15,3 C 82 % 1023,7 hPa 0,0 l/m 3,2 km/h (1 Bft) W-SW 247 12,2 C 15,3 C
10.08.2012 22:11 15,3 C 83 % 1023,9 hPa 0,0 l/m 3,2 km/h (1 Bft) W-SW 247 12,4 C 15,3 C
10.08.2012 22:16 15,3 C 83 % 1023,8 hPa 0,0 l/m 5,0 km/h (1 Bft) SW 225 12,4 C 15,3 C
10.08.2012 22:21 15,2 C 83 % 1023,8 hPa 0,0 l/m 6,8 km/h (2 Bft) W-NW 292 12,3 C 15,2 C
10.08.2012 22:26 15,1 C 83 % 1023,6 hPa 0,0 l/m 4,0 km/h (1 Bft) W-NW 292 12,2 C 15,1 C
10.08.2012 22:31 15,1 C 83 % 1023,6 hPa 0,0 l/m 5,8 km/h (2 Bft) W-SW 247 12,2 C 15,1 C
10.08.2012 22:36 14,9 C 83 % 1023,6 hPa 0,0 l/m 3,2 km/h (1 Bft) W 270 12,0 C 14,9 C
10.08.2012 22:41 14,9 C 83 % 1023,6 hPa 0,0 l/m 13,3 km/h (3 Bft) NW 315 12,0 C 14,9 C
10.08.2012 22:46 14,9 C 83 % 1023,6 hPa 0,0 l/m 10,1 km/h (2 Bft) W-NW 292 12,0 C 14,9 C
10.08.2012 22:51 14,9 C 83 % 1023,7 hPa 0,0 l/m 4,0 km/h (1 Bft) W-NW 292 12,0 C 14,9 C
10.08.2012 22:56 14,9 C 83 % 1023,7 hPa 0,0 l/m 6,8 km/h (2 Bft) NW 315 12,0 C 14,9 C
10.08.2012 23:01 14,9 C 83 % 1023,7 hPa 0,0 l/m 5,4 km/h (1 Bft) W 270 12,0 C 14,9 C
10.08.2012 23:06 14,9 C 83 % 1023,8 hPa 0,0 l/m 6,1 km/h (2 Bft) W-NW 292 12,0 C 14,9 C
10.08.2012 23:11 14,9 C 83 % 1023,7 hPa 0,0 l/m 6,8 km/h (2 Bft) NW 315 12,0 C 14,9 C
10.08.2012 23:16 14,9 C 83 % 1023,8 hPa 0,0 l/m 4,7 km/h (1 Bft) W-NW 292 12,0 C 14,9 C
10.08.2012 23:21 14,9 C 83 % 1023,7 hPa 0,0 l/m 4,3 km/h (1 Bft) W-NW 292 12,0 C 14,9 C
10.08.2012 23:26 14,9 C 83 % 1023,7 hPa 0,0 l/m 9,4 km/h (2 Bft) N 360 12,0 C 14,9 C
10.08.2012 23:31 14,9 C 83 % 1023,6 hPa 0,0 l/m 4,0 km/h (1 Bft) W-NW 292 12,0 C 14,9 C
10.08.2012 23:36 14,9 C 83 % 1023,7 hPa 0,0 l/m 7,6 km/h (2 Bft) N-NW 337 12,0 C 14,9 C
10.08.2012 23:41 14,9 C 83 % 1023,8 hPa 0,0 l/m 6,1 km/h (2 Bft) W-NW 292 12,0 C 14,9 C
10.08.2012 23:46 14,9 C 83 % 1023,8 hPa 0,0 l/m 4,7 km/h (1 Bft) NW 315 12,0 C 14,9 C
10.08.2012 23:51 14,9 C 83 % 1023,8 hPa 0,0 l/m 8,6 km/h (2 Bft) N-NW 337 12,0 C 14,9 C
10.08.2012 23:56 14,9 C 83 % 1023,8 hPa 0,0 l/m 9,7 km/h (2 Bft) NW 315 12,0 C 14,9 C
_ Min-Zeit 05:21 13:46 22:26 - 00:11 - - 05:21 05:21
Minimum _ 10,9 C 49 % 1023,6 hPa - 0,0 km/h (0 Bft) - - 8,8 C 10,9 C
_ Max-Zeit 16:36 06:16 09:21 00:01 15:26 - - 08:56 16:36
Maximum _ 21,1 C 89 % 1026,3 hPa 0,0 l/m 20,9 km/h
W-NW (4 Bft)
- - 12,6 C 21,1 C
Durchschnitt _ 15,6 C 73 % 1025,1 hPa #0,0 l/m 5,2 km/h (1 Bft) W-NW - 10,5 C 15,6 C
(c) by David Heller